Time;durP1;ratioP1;P1;durP2;ratioP2;P2;SDS_P1;SDS_P2;PMS_P1;PMS_P2;Temp;Humidity;BMP_temperature;BMP_pressure;BME280_temperature;BME280_humidity;BME280_pressure;Samples;Min_cycle;Max_cycle;Signal;HPM_P1;HPM_P2
2022/03/18 00:00:54;;;;;;;;;;;;;;;9.20;100.00;99368.00;5124132;28;19932;-60
2022/03/18 00:03:20;;;;;;;;;;;;;;;9.22;100.00;99363.28;5120351;28;19928;-60
2022/03/18 00:05:47;;;;;;;;;;;;;;;9.29;100.00;99373.88;5120473;28;19942;-59
2022/03/18 00:08:13;;;;;;;;;;;;;;;9.25;100.00;99367.38;5122767;28;19924;-60
2022/03/18 00:10:40;;;;;;;;;;;;;;;9.26;100.00;99374.31;5123930;28;19924;-60
2022/03/18 00:13:06;;;;;;;;;;;;;;;9.36;100.00;99375.44;5123759;28;19931;-60
2022/03/18 00:15:34;;;;;;;;;;;;;;;9.47;100.00;99369.38;5120180;28;19925;-60
2022/03/18 00:18:00;;;;;;;;;;;;;;;9.55;100.00;99374.44;5120799;28;19948;-61
2022/03/18 00:20:26;;;;;;;;;;;;;;;9.61;100.00;99378.09;5123575;28;19931;-60
2022/03/18 00:22:53;;;;;;;;;;;;;;;9.60;100.00;99371.09;5123783;28;19927;-61
2022/03/18 00:25:20;;;;;;;;;;;;;;;9.61;100.00;99368.22;5120069;28;19924;-61
2022/03/18 00:27:47;;;;;;;;;;;;;;;9.64;100.00;99372.31;5119855;28;20563;-62
2022/03/18 00:30:14;;;;;;;;;;;;;;;9.67;100.00;99372.69;5122400;28;19931;-61
2022/03/18 00:32:42;;;;;;;;;;;;;;;9.68;100.00;99366.31;5123478;28;19928;-60
2022/03/18 00:35:10;;;;;;;;;;;;;;;9.69;100.00;99370.59;5121639;28;19924;-61
2022/03/18 00:37:36;;;;;;;;;;;;;;;9.70;100.00;99369.56;5119933;28;19999;-61
2022/03/18 00:40:04;;;;;;;;;;;;;;;9.74;100.00;99377.94;5120732;28;19932;-61
2022/03/18 00:42:31;;;;;;;;;;;;;;;9.72;100.00;99375.50;5124858;28;19923;-61
2022/03/18 00:44:58;;;;;;;;;;;;;;;9.74;100.00;99373.44;5122705;28;19923;-61
2022/03/18 00:52:54;;;;;;;;;;;;;;;9.45;100.00;99378.66;5123250;28;19924;-61
2022/03/18 00:55:20;;;;;;;;;;;;;;;9.54;100.00;99378.16;5119580;28;19924;-61
2022/03/18 00:57:47;;;;;;;;;;;;;;;9.42;100.00;99376.41;5119609;28;19944;-60
2022/03/18 01:00:13;;;;;;;;;;;;;;;9.40;100.00;99386.50;5122214;28;19928;-61
2022/03/18 01:02:40;;;;;;;;;;;;;;;9.50;100.00;99382.28;5123122;28;19939;-60
2022/03/18 01:05:06;;;;;;;;;;;;;;;9.60;100.00;99382.59;5121492;28;19973;-61
2022/03/18 01:07:34;;;;;;;;;;;;;;;9.68;100.00;99379.66;5119555;28;19920;-61
2022/03/18 01:10:01;;;;;;;;;;;;;;;9.66;100.00;99391.56;5120035;28;19959;-61
2022/03/18 01:12:27;;;;;;;;;;;;;;;9.64;100.00;99389.13;5124297;28;19928;-60
2022/03/18 01:14:54;;;;;;;;;;;;;;;9.70;100.00;99382.09;5123012;28;19924;-61
2022/03/18 01:17:20;;;;;;;;;;;;;;;9.73;100.00;99382.47;5119295;28;19924;-61
2022/03/18 01:19:47;;;;;;;;;;;;;;;9.69;100.00;99386.59;5119216;28;20019;-60
2022/03/18 01:22:13;;;;;;;;;;;;;;;9.74;100.00;99384.09;5121840;28;19928;-60
2022/03/18 01:24:41;;;;;;;;;;;;;;;9.69;100.00;99389.28;5122911;28;19924;-60
2022/03/18 01:27:07;;;;;;;;;;;;;;;9.68;100.00;99384.19;5120957;28;19923;-60
2022/03/18 01:29:34;;;;;;;;;;;;;;;9.67;100.00;99386.03;5119240;28;19924;-60
2022/03/18 01:32:00;;;;;;;;;;;;;;;9.67;100.00;99390.53;5119799;28;19931;-60
2022/03/18 01:34:27;;;;;;;;;;;;;;;9.62;100.00;99380.50;5122786;28;19923;-61
2022/03/18 01:36:53;;;;;;;;;;;;;;;9.59;100.00;99383.63;5122708;28;19987;-61
2022/03/18 01:39:22;;;;;;;;;;;;;;;9.69;100.00;99385.78;5119384;28;19928;-61
2022/03/18 01:41:50;;;;;;;;;;;;;;;9.75;100.00;99385.72;5119448;28;20545;-61
2022/03/18 01:44:18;;;;;;;;;;;;;;;9.82;100.00;99388.31;5104593;28;19930;-61
2022/03/18 01:46:44;;;;;;;;;;;;;;;9.81;100.00;99394.69;5122669;28;19928;-61
2022/03/18 01:49:11;;;;;;;;;;;;;;;9.80;100.00;99381.56;5119894;28;19997;-61
2022/03/18 01:51:39;;;;;;;;;;;;;;;9.77;100.00;99393.50;5118698;28;20332;-60
2022/03/18 01:56:51;;;;;;;;;;;;;;;9.73;100.00;99397.66;5122204;28;19923;-60
2022/03/18 01:59:17;;;;;;;;;;;;;;;9.68;100.00;99395.66;5122997;28;19924;-61
2022/03/18 02:01:44;;;;;;;;;;;;;;;9.68;100.00;99394.84;5122735;28;19942;-61
2022/03/18 02:04:10;;;;;;;;;;;;;;;9.71;100.00;99399.75;5124739;28;19931;-61
2022/03/18 02:06:37;;;;;;;;;;;;;;;9.73;100.00;99403.81;5126278;28;19919;-61
2022/03/18 02:09:03;;;;;;;;;;;;;;;9.66;100.00;99399.56;5124959;28;19920;-61
2022/03/18 02:11:30;;;;;;;;;;;;;;;9.58;100.00;99407.88;5122492;28;19996;-61
2022/03/18 02:13:58;;;;;;;;;;;;;;;9.55;100.00;99409.13;5124068;28;19928;-61
2022/03/18 02:16:25;;;;;;;;;;;;;;;9.62;100.00;99407.19;5126036;28;19927;-61
2022/03/18 02:18:51;;;;;;;;;;;;;;;9.57;100.00;99408.88;5126122;28;19934;-61
2022/03/18 02:21:18;;;;;;;;;;;;;;;9.56;100.00;99409.94;5122795;28;19950;-61
2022/03/18 02:23:45;;;;;;;;;;;;;;;9.48;100.00;99411.03;5122479;28;19960;-61
2022/03/18 02:26:15;;;;;;;;;;;;;;;9.50;100.00;99408.16;5124464;28;19920;-61
2022/03/18 02:28:41;;;;;;;;;;;;;;;9.46;100.00;99412.28;5125746;28;19962;-61
2022/03/18 02:31:08;;;;;;;;;;;;;;;9.35;100.00;99408.47;5124312;28;19924;-62
2022/03/18 02:33:34;;;;;;;;;;;;;;;9.35;100.00;99410.31;5122190;28;19924;-61
2022/03/18 02:36:01;;;;;;;;;;;;;;;9.43;100.00;99412.72;5122991;28;20026;-61
2022/03/18 02:38:27;;;;;;;;;;;;;;;9.38;100.00;99416.03;5125741;28;19928;-61
2022/03/18 02:40:55;;;;;;;;;;;;;;;9.28;100.00;99420.25;5125506;28;20434;-61
2022/03/18 02:43:21;;;;;;;;;;;;;;;9.28;100.00;99414.91;5123732;28;19920;-60
2022/03/18 02:45:48;;;;;;;;;;;;;;;9.29;100.00;99417.34;5122056;28;19928;-59
2022/03/18 02:48:14;;;;;;;;;;;;;;;9.38;100.00;99418.69;5124497;28;19924;-60
2022/03/18 02:50:40;;;;;;;;;;;;;;;9.47;100.00;99422.72;5125491;28;19946;-60
2022/03/18 02:53:07;;;;;;;;;;;;;;;9.57;100.00;99428.38;5123671;28;19963;-60
2022/03/18 02:55:33;;;;;;;;;;;;;;;9.67;100.00;99426.03;5121751;28;19931;-60
2022/03/18 02:58:01;;;;;;;;;;;;;;;9.66;100.00;99435.06;5122428;28;19924;-60
2022/03/18 03:00:27;;;;;;;;;;;;;;;9.68;100.00;99429.53;5125216;28;19935;-60
2022/03/18 03:02:54;;;;;;;;;;;;;;;9.68;100.00;99438.34;5125302;28;19924;-60
2022/03/18 03:08:04;;;;;;;;;;;;;;;9.52;100.00;99433.56;5122282;28;19928;-60
2022/03/18 03:10:32;;;;;;;;;;;;;;;9.55;100.00;99433.13;5124829;28;20034;-60
2022/03/18 03:12:59;;;;;;;;;;;;;;;9.40;100.00;99431.84;5125947;28;19924;-60
2022/03/18 03:15:27;;;;;;;;;;;;;;;9.39;100.00;99444.34;5103361;28;19931;-61
2022/03/18 03:17:53;;;;;;;;;;;;;;;9.39;100.00;99440.84;5121259;28;19924;-61
2022/03/18 03:20:20;;;;;;;;;;;;;;;9.33;100.00;99447.88;5124336;28;19931;-61
2022/03/18 03:22:46;;;;;;;;;;;;;;;9.29;100.00;99451.19;5124801;28;19942;-61
2022/03/18 03:25:13;;;;;;;;;;;;;;;9.34;100.00;99449.53;5122244;28;19924;-60
2022/03/18 03:27:39;;;;;;;;;;;;;;;9.32;100.00;99451.56;5120911;28;19931;-59
2022/03/18 03:30:07;;;;;;;;;;;;;;;9.24;100.00;99459.84;5122276;28;20595;-60
2022/03/18 03:32:34;;;;;;;;;;;;;;;9.04;100.00;99456.50;5106445;28;19947;-61
2022/03/18 03:35:01;;;;;;;;;;;;;;;8.98;100.00;99468.00;5123673;28;19924;-60
2022/03/18 03:37:27;;;;;;;;;;;;;;;8.92;100.00;99463.53;5120790;28;19956;-60
2022/03/18 03:39:54;;;;;;;;;;;;;;;8.86;100.00;99475.88;5120954;28;19924;-60
2022/03/18 03:42:21;;;;;;;;;;;;;;;8.75;100.00;99483.72;5125610;28;19923;-60
2022/03/18 03:44:48;;;;;;;;;;;;;;;8.54;100.00;99485.66;5124514;28;19931;-60
2022/03/18 03:47:15;;;;;;;;;;;;;;;8.45;100.00;99484.25;5121671;28;19963;-60
2022/03/18 03:49:44;;;;;;;;;;;;;;;8.38;100.00;99495.97;5120550;28;19924;-60
2022/03/18 03:52:10;;;;;;;;;;;;;;;8.36;100.00;99495.34;5122502;28;19924;-60
2022/03/18 03:54:37;;;;;;;;;;;;;;;8.35;100.00;99504.38;5124040;28;19931;-60
2022/03/18 03:57:03;;;;;;;;;;;;;;;8.43;100.00;99502.28;5122865;28;19950;-61
2022/03/18 03:59:30;;;;;;;;;;;;;;;8.39;100.00;99509.06;5120378;28;19947;-61
2022/03/18 04:01:57;;;;;;;;;;;;;;;8.44;100.00;99509.28;5120237;28;19935;-61
2022/03/18 04:04:23;;;;;;;;;;;;;;;8.59;100.00;99499.16;5123863;28;19931;-61
2022/03/18 04:06:52;;;;;;;;;;;;;;;8.63;100.00;99513.69;5123961;28;19947;-61
2022/03/18 04:09:18;;;;;;;;;;;;;;;8.72;100.00;99505.47;5120629;28;19935;-61
2022/03/18 04:11:44;;;;;;;;;;;;;;;8.66;100.00;99502.59;5120364;28;19924;-60
2022/03/18 04:14:11;;;;;;;;;;;;;;;8.49;100.00;99512.09;5122188;28;20006;-60
2022/03/18 04:16:38;;;;;;;;;;;;;;;8.38;100.00;99515.44;5123579;28;19962;-60
2022/03/18 04:19:04;;;;;;;;;;;;;;;8.24;100.00;99513.78;5122328;28;19923;-60
2022/03/18 04:21:31;;;;;;;;;;;;;;;8.29;100.00;99519.34;5119319;28;19928;-60
2022/03/18 04:23:58;;;;;;;;;;;;;;;8.48;100.00;99525.66;5120183;28;19927;-60
2022/03/18 04:26:25;;;;;;;;;;;;;;;8.35;100.00;99523.00;5105327;28;19931;-60
2022/03/18 04:28:51;;;;;;;;;;;;;;;8.34;100.00;99532.84;5123347;28;19930;-60
2022/03/18 04:31:19;;;;;;;;;;;;;;;8.34;100.00;99532.03;5102231;28;19924;-60
2022/03/18 04:33:45;;;;;;;;;;;;;;;8.24;100.00;99531.59;5119839;28;19931;-60
2022/03/18 04:36:12;;;;;;;;;;;;;;;8.22;100.00;99531.81;5121910;28;19930;-60
2022/03/18 04:38:38;;;;;;;;;;;;;;;8.22;100.00;99536.31;5123309;28;19919;-60
2022/03/18 04:41:06;;;;;;;;;;;;;;;8.35;100.00;99542.47;5121748;28;19969;-60
2022/03/18 04:43:32;;;;;;;;;;;;;;;8.24;100.00;99540.41;5120962;28;19928;-60
2022/03/18 04:45:59;;;;;;;;;;;;;;;8.29;100.00;99553.97;5120029;28;19935;-60
2022/03/18 04:48:25;;;;;;;;;;;;;;;8.26;100.00;99541.03;5123109;28;19924;-61
2022/03/18 04:50:52;;;;;;;;;;;;;;;8.22;100.00;99555.78;5123014;28;19998;-61
2022/03/18 04:53:18;;;;;;;;;;;;;;;8.17;100.00;99558.22;5119827;28;19932;-60
2022/03/18 04:55:45;;;;;;;;;;;;;;;8.22;100.00;99560.28;5119601;28;19959;-60
2022/03/18 04:58:12;;;;;;;;;;;;;;;8.43;100.00;99560.88;5121477;28;19977;-61
2022/03/18 05:00:39;;;;;;;;;;;;;;;8.56;100.00;99568.00;5122926;28;19919;-61
2022/03/18 05:03:05;;;;;;;;;;;;;;;8.58;100.00;99565.94;5121550;28;19958;-61
2022/03/18 05:05:32;;;;;;;;;;;;;;;8.57;100.00;99573.09;5119191;28;19937;-61
2022/03/18 05:07:58;;;;;;;;;;;;;;;8.66;100.00;99577.19;5119266;28;20026;-61
2022/03/18 05:10:24;;;;;;;;;;;;;;;8.66;100.00;99579.03;5122356;28;19930;-61
2022/03/18 05:12:52;;;;;;;;;;;;;;;8.77;100.00;99580.22;5124118;28;19935;-60
2022/03/18 05:15:20;;;;;;;;;;;;;;;8.86;100.00;99577.13;5119620;28;19928;-60
2022/03/18 05:17:49;;;;;;;;;;;;;;;8.96;100.00;99593.47;5119230;28;19920;-60
2022/03/18 05:20:16;;;;;;;;;;;;;;;9.01;100.00;99595.50;5121860;28;19924;-60
2022/03/18 05:22:42;;;;;;;;;;;;;;;9.09;100.00;99593.44;5122473;28;19919;-60
2022/03/18 05:25:09;;;;;;;;;;;;;;;9.06;100.00;99593.03;5120570;28;19927;-61
2022/03/18 05:27:38;;;;;;;;;;;;;;;9.11;100.00;99598.53;5118852;28;19931;-61
2022/03/18 05:30:05;;;;;;;;;;;;;;;9.10;100.00;99605.69;5120087;28;20501;-61
2022/03/18 05:32:33;;;;;;;;;;;;;;;9.15;100.00;99602.41;5122360;28;19972;-61
2022/03/18 05:35:00;;;;;;;;;;;;;;;8.96;100.00;99609.47;5104277;28;19924;-61
2022/03/18 05:37:26;;;;;;;;;;;;;;;8.82;100.00;99609.72;5119088;28;19951;-61
2022/03/18 05:39:53;;;;;;;;;;;;;;;8.59;100.00;99608.34;5119032;28;19928;-60
2022/03/18 05:42:19;;;;;;;;;;;;;;;8.46;100.00;99624.34;5123262;28;20524;-60
2022/03/18 05:44:46;;;;;;;;;;;;;;;8.10;100.00;99618.63;5122519;28;19923;-60
2022/03/18 05:47:12;;;;;;;;;;;;;;;8.04;100.00;99622.94;5102101;28;20323;-60
2022/03/18 05:49:40;;;;;;;;;;;;;;;7.82;100.00;99620.66;5118737;28;19932;-60
2022/03/18 05:52:07;;;;;;;;;;;;;;;7.94;100.00;99633.16;5120034;28;20110;-60
2022/03/18 05:54:33;;;;;;;;;;;;;;;7.92;100.00;99637.06;5122114;28;19923;-60
2022/03/18 05:56:59;;;;;;;;;;;;;;;7.84;100.00;99634.56;5121723;28;19928;-61
2022/03/18 05:59:26;;;;;;;;;;;;;;;7.89;100.00;99651.56;5118480;28;19957;-61
2022/03/18 06:01:54;;;;;;;;;;;;;;;7.81;100.00;99653.59;5118388;28;19988;-61
2022/03/18 06:04:21;;;;;;;;;;;;;;;7.77;100.00;99657.72;5121920;28;19928;-60
2022/03/18 06:06:48;;;;;;;;;;;;;;;7.82;100.00;99653.41;5122216;28;19920;-61
2022/03/18 06:11:59;;;;;;;;;;;;;;;8.01;100.00;99667.75;5120324;28;19954;-61
2022/03/18 06:14:26;;;;;;;;;;;;;;;7.92;100.00;99667.13;5103983;28;19991;-61
2022/03/18 06:16:54;;;;;;;;;;;;;;;7.88;100.00;99663.25;5121911;28;19928;-61
2022/03/18 06:19:21;;;;;;;;;;;;;;;7.95;100.00;99664.03;5118342;28;19934;-61
2022/03/18 06:21:48;;;;;;;;;;;;;;;7.95;100.00;99676.56;5118520;28;19955;-61
2022/03/18 06:24:15;;;;;;;;;;;;;;;7.89;100.00;99680.03;5121077;28;19959;-61
2022/03/18 06:26:42;;;;;;;;;;;;;;;7.96;100.00;99686.16;5121814;28;19924;-60
2022/03/18 06:29:08;;;;;;;;;;;;;;;7.92;100.00;99690.25;5102314;28;19991;-61
2022/03/18 06:31:36;;;;;;;;;;;;;;;8.24;100.00;99685.97;5118235;28;20324;-61
2022/03/18 06:34:02;;;;;;;;;;;;;;;8.26;100.00;99687.44;5118903;28;19927;-61
2022/03/18 06:36:29;;;;;;;;;;;;;;;8.45;100.00;99686.63;5121413;28;19991;-61
2022/03/18 06:38:57;;;;;;;;;;;;;;;8.51;100.00;99685.78;5121615;28;20638;-61
2022/03/18 06:41:25;;;;;;;;;;;;;;;8.59;100.00;99693.59;5109338;28;19924;-61
2022/03/18 06:43:52;;;;;;;;;;;;;;;8.67;100.00;99698.69;5121122;28;19920;-61
2022/03/18 06:46:18;;;;;;;;;;;;;;;8.75;100.00;99700.31;5106902;28;19931;-60
2022/03/18 06:48:45;;;;;;;;;;;;;;;8.79;100.00;99700.72;5125498;28;19966;-61
2022/03/18 06:51:12;;;;;;;;;;;;;;;8.84;100.00;99700.91;5123104;28;19923;-60
2022/03/18 06:53:38;;;;;;;;;;;;;;;8.93;100.00;99700.50;5103811;28;19984;-60
2022/03/18 06:56:06;;;;;;;;;;;;;;;9.00;100.00;99708.47;5105130;28;19967;-60
2022/03/18 06:58:32;;;;;;;;;;;;;;;9.12;100.00;99707.63;5125232;28;20023;-60
2022/03/18 07:00:59;;;;;;;;;;;;;;;9.06;100.00;99710.28;5124753;28;19935;-61
2022/03/18 07:03:25;;;;;;;;;;;;;;;8.99;100.00;99709.50;5121409;28;19991;-60
2022/03/18 07:05:52;;;;;;;;;;;;;;;8.67;100.00;99716.50;5121495;28;19920;-60
2022/03/18 07:08:18;;;;;;;;;;;;;;;8.94;100.00;99717.31;5106127;28;19939;-60
2022/03/18 07:10:44;;;;;;;;;;;;;;;9.07;100.00;99719.91;5124729;28;19983;-60
2022/03/18 07:13:12;;;;;;;;;;;;;;;9.01;100.00;99720.75;5124180;28;20022;-60
2022/03/18 07:15:38;;;;;;;;;;;;;;;9.19;100.00;99723.59;5121122;28;20007;-60
2022/03/18 07:18:04;;;;;;;;;;;;;;;9.25;100.00;99721.94;5122007;28;20007;-60
2022/03/18 07:20:32;;;;;;;;;;;;;;;9.42;100.00;99728.41;5124558;28;19923;-60
2022/03/18 07:23:02;;;;;;;;;;;;;;;9.27;100.00;99739.34;5124527;28;19990;-60
2022/03/18 07:25:28;;;;;;;;;;;;;;;9.32;100.00;99736.84;5121097;28;20000;-60
2022/03/18 07:27:55;;;;;;;;;;;;;;;9.29;100.00;99745.28;5121107;28;19970;-60
2022/03/18 07:30:22;;;;;;;;;;;;;;;9.22;100.00;99747.97;5124263;28;19966;-60
2022/03/18 07:32:48;;;;;;;;;;;;;;;9.20;100.00;99750.03;5124429;28;19952;-60
2022/03/18 07:35:15;;;;;;;;;;;;;;;9.19;100.00;99751.03;5121453;28;19930;-60
2022/03/18 07:37:41;;;;;;;;;;;;;;;9.11;100.00;99748.63;5120900;28;19924;-60
2022/03/18 07:40:08;;;;;;;;;;;;;;;9.16;100.00;99738.13;5122184;28;19946;-60
2022/03/18 07:42:40;;;;;;;;;;;;;;;9.04;100.00;99752.31;5125299;28;19924;-60
2022/03/18 07:45:06;;;;;;;;;;;;;;;9.08;100.00;99756.22;5122698;28;19955;-60
2022/03/18 07:47:34;;;;;;;;;;;;;;;9.09;100.00;99752.53;5120359;28;19979;-60
2022/03/18 07:50:00;;;;;;;;;;;;;;;8.99;100.00;99741.47;5120865;28;19963;-60
2022/03/18 07:52:27;;;;;;;;;;;;;;;8.92;100.00;99765.47;5123921;28;20011;-60
2022/03/18 07:54:53;;;;;;;;;;;;;;;9.08;100.00;99762.38;5122951;28;19932;-61
2022/03/18 07:57:20;;;;;;;;;;;;;;;9.03;100.00;99762.19;5120294;28;20049;-61
2022/03/18 07:59:46;;;;;;;;;;;;;;;8.93;100.00;99767.09;5120327;28;20546;-60
2022/03/18 08:02:12;;;;;;;;;;;;;;;8.91;100.00;99768.34;5122183;28;20014;-61
2022/03/18 08:04:40;;;;;;;;;;;;;;;8.90;100.00;99764.03;5123236;28;19924;-60
2022/03/18 08:07:06;;;;;;;;;;;;;;;8.83;100.00;99777.34;5122111;28;19924;-60
2022/03/18 08:09:33;;;;;;;;;;;;;;;8.91;100.00;99776.34;5119887;28;19995;-60
2022/03/18 08:11:59;;;;;;;;;;;;;;;8.94;100.00;99779.41;5121899;28;19956;-60
2022/03/18 08:14:26;;;;;;;;;;;;;;;9.08;100.00;99778.34;5123206;28;19994;-60
2022/03/18 08:16:52;;;;;;;;;;;;;;;9.04;100.00;99781.63;5123201;28;19966;-60
2022/03/18 08:19:19;;;;;;;;;;;;;;;9.21;100.00;99785.50;5120214;28;19955;-60
2022/03/18 08:21:47;;;;;;;;;;;;;;;9.15;100.00;99783.69;5119917;28;19998;-60
2022/03/18 08:24:14;;;;;;;;;;;;;;;9.09;100.00;99792.50;5122054;28;19983;-60
2022/03/18 08:26:40;;;;;;;;;;;;;;;9.26;100.00;99793.69;5123260;28;19920;-60
2022/03/18 08:29:07;;;;;;;;;;;;;;;9.19;100.00;99798.25;5121870;28;19924;-60
2022/03/18 08:31:33;;;;;;;;;;;;;;;9.25;100.00;99793.91;5119624;28;19946;-60
2022/03/18 08:34:00;;;;;;;;;;;;;;;9.32;100.00;99810.69;5119902;28;19924;-61
2022/03/18 08:36:26;;;;;;;;;;;;;;;9.45;100.00;99808.00;5123133;28;19987;-62
2022/03/18 08:38:54;;;;;;;;;;;;;;;9.39;100.00;99815.00;5123225;28;19957;-61
2022/03/18 08:41:20;;;;;;;;;;;;;;;9.43;100.00;99808.22;5119406;28;20015;-61
2022/03/18 08:43:47;;;;;;;;;;;;;;;9.63;100.00;99821.50;5103201;28;19988;-61
2022/03/18 08:46:13;;;;;;;;;;;;;;;9.53;100.00;99821.13;5121778;28;19935;-60
2022/03/18 08:48:39;;;;;;;;;;;;;;;9.62;100.00;99817.19;5123028;28;19991;-60
2022/03/18 08:51:05;;;;;;;;;;;;;;;9.66;100.00;99818.41;5121483;28;19923;-60
2022/03/18 08:53:32;;;;;;;;;;;;;;;9.65;100.00;99822.94;5119066;28;20611;-61
2022/03/18 08:56:00;;;;;;;;;;;;;;;9.66;100.00;99816.56;5119333;28;19943;-61
2022/03/18 08:58:26;;;;;;;;;;;;;;;9.82;100.00;99822.44;5122651;28;19954;-60
2022/03/18 09:00:53;;;;;;;;;;;;;;;9.92;100.00;99822.81;5122479;28;19920;-60
2022/03/18 09:03:19;;;;;;;;;;;;;;;9.76;100.00;99822.28;5119200;28;19993;-60
2022/03/18 09:05:45;;;;;;;;;;;;;;;9.92;100.00;99825.50;5118968;28;19984;-60
2022/03/18 09:08:13;;;;;;;;;;;;;;;9.78;100.00;99832.72;5120792;28;19959;-60
2022/03/18 09:10:39;;;;;;;;;;;;;;;10.01;100.00;99837.56;5122361;28;20686;-60
2022/03/18 09:13:07;;;;;;;;;;;;;;;10.04;100.00;99823.78;5122851;28;19952;-61
2022/03/18 09:15:33;;;;;;;;;;;;;;;10.27;100.00;99837.47;5118697;28;19992;-60
2022/03/18 09:18:00;;;;;;;;;;;;;;;10.17;100.00;99831.78;5119304;28;20482;-60
2022/03/18 09:20:27;;;;;;;;;;;;;;;10.36;100.00;99830.84;5122234;28;19962;-60
2022/03/18 09:22:53;;;;;;;;;;;;;;;10.16;100.00;99838.13;5122354;28;19962;-60
2022/03/18 09:25:20;;;;;;;;;;;;;;;10.32;100.00;99834.97;5118939;28;19995;-60
2022/03/18 09:27:46;;;;;;;;;;;;;;;10.61;97.70;99844.25;5118720;28;19977;-61
2022/03/18 09:30:15;;;;;;;;;;;;;;;10.61;96.74;99842.41;5120900;28;20020;-61
2022/03/18 09:32:42;;;;;;;;;;;;;;;10.74;95.22;99834.28;5122169;28;19971;-61
2022/03/18 09:35:09;;;;;;;;;;;;;;;10.68;97.17;99834.31;5120466;28;19959;-61
2022/03/18 09:37:35;;;;;;;;;;;;;;;10.74;93.42;99838.78;5118674;28;20091;-61
2022/03/18 09:40:04;;;;;;;;;;;;;;;10.82;90.51;99836.69;5119337;28;19954;-61
2022/03/18 09:42:32;;;;;;;;;;;;;;;10.70;90.60;99848.31;5123479;28;19991;-61
2022/03/18 09:44:58;;;;;;;;;;;;;;;10.41;94.72;99849.72;5122031;28;19958;-61
2022/03/18 09:47:27;;;;;;;;;;;;;;;10.64;91.89;99847.31;5118433;28;19987;-60
2022/03/18 09:49:53;;;;;;;;;;;;;;;10.66;88.96;99853.25;5118594;28;19928;-61
2022/03/18 09:52:20;;;;;;;;;;;;;;;10.93;87.94;99843.19;5121572;28;19979;-60
2022/03/18 09:54:46;;;;;;;;;;;;;;;10.75;85.74;99843.13;5104139;28;20031;-61
2022/03/18 09:57:13;;;;;;;;;;;;;;;10.98;85.52;99856.72;5119680;28;19924;-61
2022/03/18 09:59:39;;;;;;;;;;;;;;;10.88;86.46;99845.69;5118701;28;19924;-61
2022/03/18 10:02:24;;;;;;;;;;;;;;;10.73;86.08;99845.19;5119591;28;20621;-60
2022/03/18 10:04:55;;;;;;;;;;;;;;;10.71;85.34;99856.09;5122035;28;20411;-60
2022/03/18 10:07:22;;;;;;;;;;;;;;;10.67;84.95;99854.09;5100492;28;19928;-59
2022/03/18 10:09:49;;;;;;;;;;;;;;;10.79;84.45;99847.81;5118900;28;19924;-60
2022/03/18 10:12:32;;;;;;;;;;;;;;;10.87;84.97;99859.25;5122425;28;19931;-61
2022/03/18 10:15:10;;;;;;;;;;;;;;;11.24;82.32;99850.31;5121540;28;19960;-60
2022/03/18 10:17:44;;;;;;;;;;;;;;;11.29;82.39;99861.19;5118099;28;19924;-62
2022/03/18 10:20:32;;;;;;;;;;;;;;;11.32;80.95;99868.78;5123635;28;19920;-61
2022/03/18 10:23:02;;;;;;;;;;;;;;;11.17;79.06;99865.63;5125500;28;19932;-60
2022/03/18 10:25:36;;;;;;;;;;;;;;;11.44;77.41;99867.00;5103983;28;20214;-61
2022/03/18 10:28:03;;;;;;;;;;;;;;;11.66;73.07;99865.56;5123024;28;19983;-60
2022/03/18 10:30:31;;;;;;;;;;;;;;;11.37;75.34;99860.91;5125487;28;19949;-61
2022/03/18 10:32:57;;;;;;;;;;;;;;;11.47;75.09;99869.25;5125339;28;19942;-61
2022/03/18 10:38:26;;;;;;;;;;;;;;;11.97;75.07;99861.94;5124496;28;19924;-60
2022/03/18 10:40:53;;;;;;;;;;;;;;;11.54;78.39;99855.81;5125136;28;19928;-61
2022/03/18 10:43:20;;;;;;;;;;;;;;;11.72;76.40;99864.69;5123753;28;19924;-60
2022/03/18 10:45:59;;;;;;;;;;;;;;;11.93;71.94;99865.28;5137812;27;19963;-61
2022/03/18 10:48:25;;;;;;;;;;;;;;;11.66;74.58;99865.56;5113005;28;19981;-62
2022/03/18 10:51:01;;;;;;;;;;;;;;;11.77;72.18;99870.19;5113046;28;19963;-61
2022/03/18 10:53:30;;;;;;;;;;;;;;;12.06;68.30;99875.84;5117171;28;19973;-60
2022/03/18 10:55:59;;;;;;;;;;;;;;;12.13;69.18;99876.56;5124930;28;19924;-60
2022/03/18 10:58:29;;;;;;;;;;;;;;;11.87;69.81;99894.59;5112820;28;19924;-60
2022/03/18 11:00:58;;;;;;;;;;;;;;;12.07;67.53;99888.19;5112747;28;20003;-60
2022/03/18 11:03:25;;;;;;;;;;;;;;;12.04;66.79;99884.06;5116406;28;19924;-60
2022/03/18 11:05:52;;;;;;;;;;;;;;;11.98;67.36;99884.97;5124905;28;19924;-60
2022/03/18 11:08:22;;;;;;;;;;;;;;;11.99;66.61;99896.50;5121530;28;19954;-60
2022/03/18 11:11:10;;;;;;;;;;;;;;;12.27;66.24;99896.78;5121180;28;19973;-61
2022/03/18 11:13:40;;;;;;;;;;;;;;;12.13;64.38;99896.13;5122745;28;19928;-61
2022/03/18 11:16:08;;;;;;;;;;;;;;;12.11;64.01;99884.00;5122331;28;19995;-61
2022/03/18 11:18:36;;;;;;;;;;;;;;;12.05;64.97;99891.06;5124537;28;19935;-61
2022/03/18 11:21:03;;;;;;;;;;;;;;;12.47;63.61;99883.13;5123718;28;19932;-61
2022/03/18 11:23:31;;;;;;;;;;;;;;;12.33;63.42;99880.63;5121058;28;19924;-62
2022/03/18 11:26:00;;;;;;;;;;;;;;;12.38;61.58;99885.28;5103041;28;19999;-60
2022/03/18 11:28:27;;;;;;;;;;;;;;;12.48;60.43;99884.75;5124333;27;19999;-61
2022/03/18 11:31:01;;;;;;;;;;;;;;;12.51;61.06;99884.31;5124039;28;19935;-61
2022/03/18 11:33:27;;;;;;;;;;;;;;;12.34;62.27;99889.50;5112460;28;20347;-61
2022/03/18 11:36:04;;;;;;;;;;;;;;;12.22;63.22;99894.81;5112314;28;19935;-61
2022/03/18 11:38:48;;;;;;;;;;;;;;;12.59;61.11;99892.03;5116835;28;20312;-61
2022/03/18 11:41:16;;;;;;;;;;;;;;;12.68;60.37;99891.50;5121473;28;19931;-61
2022/03/18 11:43:49;;;;;;;;;;;;;;;12.58;60.58;99885.03;5122302;28;19951;-61
2022/03/18 11:46:20;;;;;;;;;;;;;;;12.39;61.76;99887.75;5123216;28;19920;-61
2022/03/18 11:48:49;;;;;;;;;;;;;;;12.41;59.84;99879.47;5124118;28;19930;-61
2022/03/18 11:51:26;;;;;;;;;;;;;;;12.56;59.95;99887.97;5121483;28;19931;-62
2022/03/18 11:53:54;;;;;;;;;;;;;;;12.50;60.39;99894.22;5120573;28;19935;-62
2022/03/18 11:56:22;;;;;;;;;;;;;;;12.37;60.98;99892.53;5123547;28;19927;-62
2022/03/18 11:58:49;;;;;;;;;;;;;;;12.35;61.51;99888.44;5123871;28;19930;-61
2022/03/18 12:01:34;;;;;;;;;;;;;;;12.33;63.89;99898.56;5121059;28;19966;-61
2022/03/18 12:04:00;;;;;;;;;;;;;;;12.37;63.42;99889.03;5120599;28;19995;-61
2022/03/18 12:06:28;;;;;;;;;;;;;;;12.84;60.39;99890.81;5123864;28;19983;-61
2022/03/18 12:09:03;;;;;;;;;;;;;;;12.66;60.05;99900.78;5105644;28;19924;-62
2022/03/18 12:11:36;;;;;;;;;;;;;;;12.34;62.90;99894.84;5120070;28;19958;-60
2022/03/18 12:14:03;;;;;;;;;;;;;;;12.54;63.04;99899.94;5122468;28;19942;-61
2022/03/18 12:16:30;;;;;;;;;;;;;;;12.54;61.32;99900.75;5123672;28;19959;-61
2022/03/18 12:18:58;;;;;;;;;;;;;;;12.56;60.04;99904.03;5123702;28;19999;-61
2022/03/18 12:21:34;;;;;;;;;;;;;;;12.43;62.91;99906.88;5111671;28;20030;-61
2022/03/18 12:24:06;;;;;;;;;;;;;;;12.31;63.17;99887.25;5111634;28;19952;-61
2022/03/18 12:26:34;;;;;;;;;;;;;;;12.70;61.55;99888.56;5111690;28;19924;-61
2022/03/18 12:29:00;;;;;;;;;;;;;;;12.58;63.06;99883.19;5111890;28;20054;-61
2022/03/18 12:31:26;;;;;;;;;;;;;;;12.72;63.63;99889.97;5111760;28;19920;-60
2022/03/18 12:33:56;;;;;;;;;;;;;;;12.47;64.39;99880.47;5111528;28;19967;-60
2022/03/18 12:36:24;;;;;;;;;;;;;;;12.65;64.09;99883.09;5119882;28;19924;-60
2022/03/18 12:38:50;;;;;;;;;;;;;;;12.26;65.47;99871.03;5120093;28;19930;-60
2022/03/18 12:41:21;;;;;;;;;;;;;;;12.78;65.08;99875.66;5121675;28;19983;-60
2022/03/18 12:43:48;;;;;;;;;;;;;;;12.89;65.10;99888.28;5124332;28;19947;-61
2022/03/18 12:46:16;;;;;;;;;;;;;;;12.53;66.96;99872.34;5122132;28;19928;-61
2022/03/18 12:48:47;;;;;;;;;;;;;;;12.87;68.06;99870.78;5123074;28;19924;-61
2022/03/18 12:51:13;;;;;;;;;;;;;;;13.18;66.06;99865.16;5120935;28;20016;-61
2022/03/18 12:53:46;;;;;;;;;;;;;;;12.65;68.78;99865.16;5119522;28;20269;-61
2022/03/18 12:56:16;;;;;;;;;;;;;;;12.73;68.91;99864.81;5121559;28;19924;-61
2022/03/18 12:58:45;;;;;;;;;;;;;;;12.77;67.63;99873.22;5122855;28;19927;-61
2022/03/18 13:01:12;;;;;;;;;;;;;;;12.54;68.10;99868.59;5120970;28;19930;-61
2022/03/18 13:03:46;;;;;;;;;;;;;;;12.74;67.04;99879.03;5119353;28;19970;-61